createdAt,value
2023-03-16T00:02:30.256Z,5.55
2023-03-16T00:05:31.951Z,5.40
2023-03-16T00:08:33.756Z,4.03
2023-03-16T00:11:35.683Z,6.35
2023-03-16T00:14:38.988Z,7.65
2023-03-16T00:17:40.715Z,4.70
2023-03-16T00:20:42.411Z,7.57
2023-03-16T00:23:44.097Z,4.47
2023-03-16T00:26:46.224Z,3.03
2023-03-16T00:29:50.590Z,4.18
2023-03-16T00:32:52.447Z,3.15
2023-03-16T00:35:54.453Z,5.65
2023-03-16T00:38:56.144Z,7.38
2023-03-16T00:41:58.019Z,6.10
2023-03-16T00:45:01.701Z,3.67
2023-03-16T00:48:03.741Z,6.28
2023-03-16T00:51:08.074Z,4.60
2023-03-16T00:54:09.773Z,5.72
2023-03-16T00:57:12.277Z,7.47
2023-03-16T01:00:16.168Z,3.80
2023-03-16T01:03:17.909Z,4.05
2023-03-16T01:06:20.005Z,5.70
2023-03-16T01:09:21.721Z,5.20
2023-03-16T01:12:24.546Z,3.85
2023-03-16T01:15:27.610Z,5.65
2023-03-16T01:18:30.059Z,2.95
2023-03-16T01:21:32.338Z,5.45
2023-03-16T01:24:34.498Z,5.97
2023-03-16T01:27:36.152Z,4.22
2023-03-16T01:30:39.212Z,6.97
2023-03-16T01:33:42.075Z,4.55
2023-03-16T01:36:44.524Z,5.07
2023-03-16T01:39:46.179Z,4.60
2023-03-16T01:42:49.655Z,5.75
2023-03-16T01:46:17.620Z,4.05
2023-03-16T01:49:24.197Z,5.53
2023-03-16T01:52:30.143Z,5.45
2023-03-16T01:55:31.958Z,6.50
2023-03-16T01:58:34.107Z,6.35
2023-03-16T02:01:37.259Z,5.82
2023-03-16T02:04:44.592Z,5.65
2023-03-16T02:07:48.715Z,6.00
2023-03-16T02:10:50.807Z,5.13
2023-03-16T02:13:52.486Z,4.57
2023-03-16T02:16:56.514Z,6.57
2023-03-16T02:20:11.327Z,5.00
2023-03-16T02:23:17.580Z,8.10
2023-03-16T02:26:28.980Z,6.72
2023-03-16T02:29:55.906Z,4.53
2023-03-16T02:32:57.884Z,6.45
2023-03-16T02:35:59.643Z,5.40
2023-03-16T02:39:01.687Z,5.70
2023-03-16T02:42:04.336Z,6.57
2023-03-16T02:45:09.259Z,6.13
2023-03-16T02:48:14.591Z,5.75
2023-03-16T02:51:16.483Z,4.15
2023-03-16T02:54:18.460Z,8.25
2023-03-16T02:57:20.197Z,8.32
2023-03-16T03:00:23.469Z,5.63
2023-03-16T03:03:25.690Z,4.15
2023-03-16T03:06:27.546Z,5.25
2023-03-16T03:09:29.221Z,4.63
2023-03-16T03:12:30.911Z,4.38
2023-03-16T03:15:34.625Z,7.10
2023-03-16T03:18:54.742Z,8.05
2023-03-16T03:21:56.396Z,4.00
2023-03-16T03:24:58.069Z,6.50
2023-03-16T03:27:59.719Z,5.88
2023-03-16T03:31:03.090Z,4.80
2023-03-16T03:34:04.937Z,4.50
2023-03-16T03:37:06.613Z,4.95
2023-03-16T03:40:11.398Z,4.03
2023-03-16T03:43:13.115Z,3.67
2023-03-16T03:46:16.316Z,4.13
2023-03-16T03:49:18.078Z,6.35
2023-03-16T03:52:19.783Z,5.70
2023-03-16T03:55:21.478Z,5.30
2023-03-16T03:58:23.149Z,6.00
2023-03-16T04:01:26.272Z,7.32
2023-03-16T04:04:27.947Z,7.72
2023-03-16T04:07:29.615Z,6.05
2023-03-16T04:10:31.390Z,5.95
2023-03-16T04:13:33.087Z,6.57
2023-03-16T04:16:36.280Z,7.20
2023-03-16T04:19:38.293Z,5.93
2023-03-16T04:22:40.216Z,8.05
2023-03-16T04:25:42.255Z,7.25
2023-03-16T04:28:43.976Z,11.57
2023-03-16T04:31:47.185Z,7.65
2023-03-16T04:34:48.857Z,5.65
2023-03-16T04:37:50.541Z,3.72
2023-03-16T04:40:52.242Z,7.82
2023-03-16T04:43:53.960Z,6.20
2023-03-16T04:46:57.100Z,5.75
2023-03-16T04:49:58.849Z,4.13
2023-03-16T04:53:00.729Z,7.80
2023-03-16T04:56:02.505Z,5.95
2023-03-16T04:59:04.226Z,4.60
2023-03-16T05:02:07.309Z,4.70
2023-03-16T05:05:09.535Z,7.57
2023-03-16T05:08:11.552Z,9.05
2023-03-16T05:11:13.255Z,7.88
2023-03-16T05:14:14.901Z,6.82
2023-03-16T05:17:17.948Z,8.48
2023-03-16T05:20:19.891Z,8.07
2023-03-16T05:23:22.344Z,11.23
2023-03-16T05:26:24.226Z,9.48
2023-03-16T05:29:25.970Z,7.78
2023-03-16T05:32:29.182Z,4.93
2023-03-16T05:35:31.145Z,7.88
2023-03-16T05:38:33.076Z,7.07
2023-03-16T05:41:35.003Z,6.75
2023-03-16T05:44:36.998Z,5.78
2023-03-16T05:47:40.544Z,6.65
2023-03-16T05:50:42.585Z,8.48
2023-03-16T05:53:44.335Z,8.40
2023-03-16T05:56:46.307Z,12.63
2023-03-16T05:59:48.059Z,7.35
2023-03-16T06:02:52.075Z,10.57
2023-03-16T06:05:53.831Z,5.15
2023-03-16T06:08:55.768Z,6.57
2023-03-16T06:11:57.464Z,5.88
2023-03-16T06:14:59.146Z,6.38
2023-03-16T06:18:02.292Z,8.48
2023-03-16T06:21:04.303Z,10.63
2023-03-16T06:24:06.429Z,8.40
2023-03-16T06:27:08.306Z,9.25
2023-03-16T06:30:12.097Z,9.02
2023-03-16T06:33:15.169Z,18.98
2023-03-16T06:36:16.857Z,11.10
2023-03-16T06:39:18.600Z,9.50
2023-03-16T06:42:20.562Z,7.93
2023-03-16T06:45:22.243Z,8.60
2023-03-16T06:48:25.529Z,6.20
2023-03-16T06:51:27.652Z,8.43
2023-03-16T06:54:29.548Z,8.30
2023-03-16T06:57:31.234Z,8.35
2023-03-16T07:00:33.272Z,8.90
2023-03-16T07:03:36.632Z,8.80
2023-03-16T07:06:38.405Z,8.15
2023-03-16T07:26:26.515Z,10.35
2023-03-16T07:29:28.456Z,8.80
2023-03-16T07:32:30.325Z,9.88
2023-03-16T07:35:32.019Z,6.15
2023-03-16T07:38:33.839Z,5.00
2023-03-16T07:41:37.466Z,11.30
2023-03-16T07:44:39.297Z,6.28
2023-03-16T07:47:41.116Z,7.78
2023-03-16T07:50:42.862Z,5.10
2023-03-16T07:53:44.493Z,6.22
2023-03-16T07:56:49.657Z,5.80
2023-03-16T07:59:51.742Z,7.18
2023-03-16T08:02:53.495Z,7.05
2023-03-16T08:05:55.249Z,7.03
2023-03-16T08:08:56.973Z,7.88
2023-03-16T08:12:00.053Z,8.20
2023-03-16T08:15:01.727Z,7.53
2023-03-16T08:24:39.107Z,4.18
2023-03-16T08:27:41.058Z,4.57
2023-03-16T08:30:47.388Z,5.13
2023-03-16T08:33:49.979Z,6.10
2023-03-16T08:36:51.839Z,5.82
2023-03-16T08:39:54.968Z,4.78
2023-03-16T08:42:56.826Z,4.93
2023-03-16T08:45:58.732Z,5.40
2023-03-16T08:49:00.474Z,6.70
2023-03-16T08:52:02.270Z,6.85
2023-03-16T08:55:06.745Z,6.10
2023-03-16T08:58:08.676Z,5.15
2023-03-16T09:01:11.692Z,5.00
2023-03-16T09:04:13.551Z,4.20
2023-03-16T09:07:15.336Z,6.32
2023-03-16T09:10:18.575Z,7.07
2023-03-16T09:13:20.273Z,5.45
2023-03-16T09:16:22.021Z,7.65
2023-03-16T09:19:24.085Z,4.07
2023-03-16T09:22:26.028Z,5.10
2023-03-16T09:25:29.360Z,5.97
2023-03-16T09:28:31.653Z,7.10
2023-03-16T09:31:33.718Z,5.88
2023-03-16T09:34:35.833Z,4.75
2023-03-16T09:37:45.020Z,6.85
2023-03-16T09:44:09.373Z,3.72
2023-03-16T09:47:13.075Z,5.50
2023-03-16T09:50:21.665Z,3.15
2023-03-16T09:53:27.177Z,4.68
2023-03-16T09:56:34.912Z,5.32
2023-03-16T09:59:36.593Z,4.65
2023-03-16T10:03:01.350Z,6.35
2023-03-16T10:06:05.711Z,5.40
2023-03-16T10:09:21.738Z,3.78
2023-03-16T10:12:31.959Z,6.45
2023-03-16T10:15:37.277Z,5.68
2023-03-16T10:18:43.212Z,3.97
2023-03-16T10:21:45.249Z,4.35
2023-03-16T10:24:57.940Z,4.38
2023-03-16T10:28:01.193Z,3.83
2023-03-16T10:31:02.971Z,5.80
2023-03-16T10:34:06.172Z,4.45
2023-03-16T10:37:13.052Z,5.03
2023-03-16T10:40:15.679Z,4.10
2023-03-16T10:43:18.771Z,2.60
2023-03-16T10:46:20.555Z,4.00
2023-03-16T10:49:24.561Z,4.32
2023-03-16T10:52:33.700Z,3.78
2023-03-16T10:55:43.611Z,3.72
2023-03-16T11:01:48.695Z,3.70
2023-03-16T11:04:50.734Z,3.47
2023-03-16T11:07:59.537Z,6.25
2023-03-16T11:11:09.926Z,2.92
2023-03-16T11:14:14.105Z,2.88
2023-03-16T11:17:19.354Z,3.60
2023-03-16T11:20:26.499Z,3.95
2023-03-16T11:23:31.971Z,3.13
2023-03-16T11:26:35.839Z,3.83
2023-03-16T11:32:49.139Z,3.03
2023-03-16T11:35:59.810Z,4.28
2023-03-16T11:39:11.145Z,5.32
2023-03-16T11:42:33.481Z,3.63
2023-03-16T11:45:41.309Z,4.30
2023-03-16T11:48:50.371Z,4.20
2023-03-16T11:52:02.908Z,3.85
2023-03-16T11:55:19.344Z,3.40
2023-03-16T11:58:37.794Z,3.55
2023-03-16T12:02:00.194Z,4.65
2023-03-16T12:05:31.621Z,5.28
2023-03-16T12:08:57.636Z,4.75
2023-03-16T12:12:04.264Z,3.65
2023-03-16T12:15:21.400Z,3.83
2023-03-16T12:18:32.630Z,4.05
2023-03-16T12:21:39.399Z,2.75
2023-03-16T12:24:43.862Z,2.78
2023-03-16T12:27:47.686Z,4.55
2023-03-16T12:34:02.797Z,5.63
2023-03-16T12:37:19.359Z,4.60
2023-03-16T12:40:31.426Z,3.35
2023-03-16T12:43:51.839Z,4.57
2023-03-16T12:47:00.785Z,3.75
2023-03-16T12:50:10.444Z,3.25
2023-03-16T12:53:25.910Z,2.63
2023-03-16T12:56:29.832Z,3.22
2023-03-16T12:59:39.963Z,3.50
2023-03-16T13:02:45.344Z,3.15
2023-03-16T13:05:52.084Z,4.80
2023-03-16T13:08:56.936Z,4.95
2023-03-16T13:11:58.958Z,4.88
2023-03-16T13:15:00.732Z,2.92
2023-03-16T13:18:24.452Z,3.55
2023-03-16T13:21:37.692Z,4.20
2023-03-16T13:24:40.240Z,4.30
2023-03-16T13:27:44.524Z,4.03
2023-03-16T13:30:48.390Z,5.00
2023-03-16T13:33:54.117Z,4.05
2023-03-16T13:36:59.118Z,4.85
2023-03-16T13:40:02.806Z,2.80
2023-03-16T13:43:04.519Z,5.85
2023-03-16T13:46:14.266Z,3.80
2023-03-16T13:49:16.394Z,3.60
2023-03-16T13:52:28.719Z,3.13
2023-03-16T13:55:33.429Z,3.53
2023-03-16T13:58:37.929Z,5.60
2023-03-16T14:01:44.279Z,3.40
2023-03-16T14:04:46.385Z,2.95
2023-03-16T14:07:50.917Z,2.78
2023-03-16T14:10:54.945Z,4.47
2023-03-16T14:13:58.284Z,3.13
2023-03-16T14:17:02.718Z,3.22
2023-03-16T14:20:09.416Z,2.63
2023-03-16T14:23:20.837Z,2.30
2023-03-16T14:26:22.860Z,3.60
2023-03-16T14:29:28.314Z,4.70
2023-03-16T14:32:31.784Z,3.80
2023-03-16T14:35:40.414Z,5.35
2023-03-16T14:38:44.868Z,2.83
2023-03-16T14:41:49.256Z,2.95
2023-03-16T14:44:51.366Z,3.30
2023-03-16T14:47:53.006Z,6.85
2023-03-16T14:50:57.347Z,4.00
2023-03-16T14:54:00.512Z,4.60
2023-03-16T14:57:04.157Z,3.00
2023-03-16T15:00:10.089Z,3.78
2023-03-16T15:03:15.267Z,3.10
2023-03-16T15:06:16.996Z,4.10
2023-03-16T15:09:33.456Z,4.03
2023-03-16T15:12:35.263Z,3.55
2023-03-16T15:15:36.910Z,3.58
2023-03-16T15:18:38.719Z,2.33
2023-03-16T15:21:40.528Z,4.47
2023-03-16T15:24:43.626Z,2.75
2023-03-16T15:27:45.534Z,4.05
2023-03-16T15:30:49.138Z,5.07
2023-03-16T15:33:50.896Z,5.43
2023-03-16T15:36:52.644Z,5.00
2023-03-16T15:39:55.705Z,2.20
2023-03-16T15:42:57.590Z,4.20
2023-03-16T15:45:59.587Z,2.97
2023-03-16T15:49:01.302Z,3.47
2023-03-16T15:52:03.466Z,4.00
2023-03-16T15:55:15.546Z,3.28
2023-03-16T15:58:21.336Z,4.53
2023-03-16T16:01:24.993Z,5.13
2023-03-16T16:04:27.137Z,7.45
2023-03-16T16:07:29.344Z,4.03
2023-03-16T16:10:33.712Z,4.68
2023-03-16T16:13:44.271Z,7.70
2023-03-16T16:16:46.904Z,4.95
2023-03-16T16:19:48.818Z,5.72
2023-03-16T16:22:51.757Z,4.95
2023-03-16T16:25:57.245Z,12.32
2023-03-16T16:28:59.172Z,10.05
2023-03-16T16:32:01.249Z,10.30
2023-03-16T16:35:04.848Z,9.25
2023-03-16T16:38:07.200Z,5.15
2023-03-16T16:41:20.852Z,5.22
2023-03-16T16:44:24.470Z,4.97
2023-03-16T16:47:26.672Z,4.95
2023-03-16T16:50:28.490Z,4.25
2023-03-16T16:53:30.634Z,4.05
2023-03-16T16:56:36.091Z,4.50
2023-03-16T16:59:38.584Z,4.30
2023-03-16T17:02:44.425Z,4.00
2023-03-16T17:05:46.406Z,5.32
2023-03-16T17:08:49.091Z,9.73
2023-03-16T17:11:53.136Z,8.82
2023-03-16T17:14:55.640Z,8.88
2023-03-16T17:18:02.692Z,8.27
2023-03-16T17:21:04.704Z,9.57
2023-03-16T17:24:06.757Z,12.77
2023-03-16T17:27:11.969Z,10.15
2023-03-16T17:30:22.984Z,20.60
2023-03-16T17:33:27.609Z,16.73
2023-03-16T17:36:30.115Z,23.67
2023-03-16T17:39:33.684Z,11.55
2023-03-16T17:42:37.994Z,13.15
2023-03-16T17:45:40.047Z,12.90
2023-03-16T17:48:43.410Z,12.43
2023-03-16T17:51:46.890Z,11.52
2023-03-16T17:54:50.228Z,8.10
2023-03-16T17:57:55.802Z,3.53
2023-03-16T18:00:58.973Z,5.25
2023-03-16T18:04:02.210Z,6.78
2023-03-16T18:07:12.105Z,5.07
2023-03-16T18:10:15.666Z,13.25
2023-03-16T18:13:23.960Z,18.67
2023-03-16T18:16:27.001Z,14.68
2023-03-16T18:19:32.196Z,12.75
2023-03-16T18:22:35.201Z,13.95
2023-03-16T18:25:39.092Z,6.55
2023-03-16T18:28:45.348Z,8.25
2023-03-16T18:31:49.398Z,9.02
2023-03-16T18:34:54.281Z,6.03
2023-03-16T18:37:56.997Z,6.75
2023-03-16T18:41:01.229Z,7.40
2023-03-16T18:44:17.301Z,4.35
2023-03-16T18:47:22.827Z,7.07
2023-03-16T18:50:28.259Z,12.48
2023-03-16T18:53:31.538Z,15.30
2023-03-16T18:56:34.276Z,15.65
2023-03-16T18:59:40.376Z,10.23
2023-03-16T19:02:46.662Z,9.30
2023-03-16T19:05:50.933Z,8.80
2023-03-16T19:08:54.577Z,5.28
2023-03-16T19:11:58.679Z,10.90
2023-03-16T19:18:08.109Z,10.45
2023-03-16T19:21:18.663Z,14.13
2023-03-16T19:24:26.241Z,13.73
2023-03-16T19:27:35.890Z,14.07
2023-03-16T19:30:41.146Z,12.27
2023-03-16T19:33:45.764Z,9.88
2023-03-16T19:36:48.851Z,8.20
2023-03-16T19:39:52.197Z,9.10
2023-03-16T19:42:55.600Z,8.05
2023-03-16T19:45:59.530Z,8.88
2023-03-16T19:52:11.604Z,8.80
2023-03-16T19:55:16.537Z,7.28
2023-03-16T19:58:25.598Z,8.23
2023-03-16T20:01:33.143Z,7.80
2023-03-16T20:04:36.551Z,10.45
2023-03-16T20:07:39.758Z,8.98
2023-03-16T20:10:42.789Z,7.93
2023-03-16T20:13:47.783Z,9.02
2023-03-16T20:16:51.578Z,7.82
2023-03-16T20:19:55.319Z,9.95
2023-03-16T20:22:57.777Z,15.50
2023-03-16T20:26:02.649Z,10.10
2023-03-16T20:29:17.041Z,10.23
2023-03-16T20:32:23.500Z,10.93
2023-03-16T20:35:32.229Z,22.05
2023-03-16T20:38:34.940Z,20.40
2023-03-16T20:41:37.539Z,23.27
2023-03-16T20:44:40.344Z,22.98
2023-03-16T20:47:44.393Z,28.48
2023-03-16T20:50:47.628Z,34.05
2023-03-16T20:53:50.737Z,24.80
2023-03-16T20:56:53.325Z,36.70
2023-03-16T20:59:55.945Z,36.53
2023-03-16T21:03:01.384Z,33.95
2023-03-16T21:06:06.894Z,27.98
2023-03-16T21:09:10.409Z,21.92
2023-03-16T21:12:23.519Z,24.48
2023-03-16T21:15:27.694Z,23.75
2023-03-16T21:18:31.337Z,18.92
2023-03-16T21:21:33.258Z,20.02
2023-03-16T21:24:34.921Z,19.02
2023-03-16T21:27:37.025Z,17.30
2023-03-16T21:30:42.718Z,16.35
2023-03-16T21:33:46.198Z,17.77
2023-03-16T21:36:48.211Z,18.13
2023-03-16T21:39:50.790Z,21.60
2023-03-16T21:42:52.683Z,16.42
2023-03-16T21:45:55.653Z,20.40
2023-03-16T21:48:58.962Z,22.48
2023-03-16T21:52:00.821Z,18.75
2023-03-16T21:55:02.722Z,16.45
2023-03-16T21:58:04.459Z,22.48
2023-03-16T22:01:06.243Z,17.15
2023-03-16T22:04:15.217Z,20.90
2023-03-16T22:07:16.962Z,22.33
2023-03-16T22:10:18.942Z,20.10
2023-03-16T22:13:21.394Z,23.20
2023-03-16T22:16:25.326Z,25.98
2023-03-16T22:19:28.712Z,18.45
2023-03-16T22:22:32.829Z,24.33
2023-03-16T22:25:34.599Z,24.88
2023-03-16T22:28:36.479Z,22.90
2023-03-16T22:31:38.318Z,22.48
2023-03-16T22:34:44.094Z,19.90
2023-03-16T22:37:45.893Z,27.67
2023-03-16T22:40:47.633Z,22.23
2023-03-16T22:43:50.104Z,23.33
2023-03-16T22:46:51.902Z,19.48
2023-03-16T22:49:55.166Z,18.10
2023-03-16T22:52:59.751Z,16.83
2023-03-16T22:56:01.661Z,13.93
2023-03-16T22:59:07.144Z,18.13
2023-03-16T23:02:13.035Z,11.35
2023-03-16T23:05:21.361Z,13.00
2023-03-16T23:08:24.177Z,11.07
2023-03-16T23:11:28.552Z,10.10
2023-03-16T23:14:34.653Z,11.55
2023-03-16T23:17:36.425Z,12.75
2023-03-16T23:20:39.540Z,9.70
2023-03-16T23:23:43.036Z,10.10
2023-03-16T23:26:48.037Z,9.68
2023-03-16T23:29:49.865Z,10.75
2023-03-16T23:32:53.242Z,12.23
2023-03-16T23:35:56.441Z,9.85
2023-03-16T23:38:58.153Z,10.52
2023-03-16T23:41:59.935Z,11.35
2023-03-16T23:45:08.603Z,13.15
2023-03-16T23:48:15.420Z,9.20
2023-03-16T23:51:21.430Z,9.82
2023-03-16T23:54:24.762Z,8.52
2023-03-16T23:57:26.462Z,13.48
